createdAt,value
2022-08-30T00:01:32.622Z,19.57
2022-08-30T00:04:02.506Z,19.51
2022-08-30T00:06:30.184Z,19.40
2022-08-30T00:08:57.182Z,19.34
2022-08-30T00:11:27.114Z,19.31
2022-08-30T00:13:55.968Z,19.24
2022-08-30T00:16:23.954Z,19.27
2022-08-30T00:18:51.175Z,19.07
2022-08-30T00:21:19.065Z,19.09
2022-08-30T00:23:47.796Z,19.12
2022-08-30T00:26:14.262Z,18.98
2022-08-30T00:28:40.729Z,18.97
2022-08-30T00:31:07.512Z,18.83
2022-08-30T00:33:34.115Z,18.79
2022-08-30T00:36:00.590Z,18.70
2022-08-30T00:38:27.337Z,18.71
2022-08-30T00:40:53.993Z,18.63
2022-08-30T00:43:34.142Z,18.61
2022-08-30T00:46:04.658Z,18.59
2022-08-30T00:48:33.458Z,18.53
2022-08-30T00:51:05.789Z,18.48
2022-08-30T00:53:36.604Z,18.47
2022-08-30T00:56:05.141Z,18.41
2022-08-30T00:58:36.412Z,18.46
2022-08-30T01:01:06.225Z,18.41
2022-08-30T01:03:36.221Z,18.38
2022-08-30T01:06:04.988Z,18.38
2022-08-30T01:08:31.782Z,18.35
2022-08-30T01:10:58.496Z,18.35
2022-08-30T01:13:26.874Z,18.33
2022-08-30T01:15:59.867Z,18.32
2022-08-30T01:18:26.847Z,18.25
2022-08-30T01:21:23.034Z,18.23
2022-08-30T01:23:58.861Z,18.23
2022-08-30T01:26:28.453Z,18.19
2022-08-30T01:28:59.648Z,18.23
2022-08-30T01:31:26.546Z,18.18
2022-08-30T01:33:53.377Z,18.16
2022-08-30T01:36:20.958Z,18.06
2022-08-30T01:38:51.497Z,17.99
2022-08-30T01:41:17.982Z,17.98
2022-08-30T01:43:44.863Z,17.93
2022-08-30T01:46:12.964Z,17.81
2022-08-30T01:48:40.935Z,17.80
2022-08-30T01:51:11.708Z,17.77
2022-08-30T01:53:42.446Z,17.68
2022-08-30T01:56:10.024Z,17.75
2022-08-30T01:58:39.470Z,17.63
2022-08-30T02:01:14.529Z,17.55
2022-08-30T02:03:43.368Z,17.58
2022-08-30T02:06:14.151Z,17.49
2022-08-30T02:08:44.062Z,17.43
2022-08-30T02:11:11.459Z,17.34
2022-08-30T02:13:43.064Z,17.36
2022-08-30T02:16:13.937Z,17.24
2022-08-30T02:18:40.445Z,17.24
2022-08-30T02:21:08.067Z,17.16
2022-08-30T02:23:40.371Z,17.14
2022-08-30T02:26:10.330Z,17.12
2022-08-30T02:28:42.711Z,17.06
2022-08-30T02:31:17.144Z,17.00
2022-08-30T02:33:46.230Z,16.96
2022-08-30T02:36:15.491Z,16.96
2022-08-30T02:38:41.989Z,16.92
2022-08-30T02:41:10.940Z,16.83
2022-08-30T02:43:37.442Z,16.85
2022-08-30T02:46:05.015Z,16.86
2022-08-30T02:48:31.502Z,16.82
2022-08-30T02:51:05.784Z,16.76
2022-08-30T02:53:36.517Z,16.75
2022-08-30T02:56:03.535Z,16.79
2022-08-30T02:58:32.518Z,16.76
2022-08-30T03:00:59.296Z,16.74
2022-08-30T03:03:25.974Z,16.75
2022-08-30T03:05:52.415Z,16.66
2022-08-30T03:08:18.835Z,16.63
2022-08-30T03:10:47.429Z,16.60
2022-08-30T03:13:13.993Z,16.57
2022-08-30T03:15:41.553Z,16.55
2022-08-30T03:18:09.055Z,16.52
2022-08-30T03:20:38.738Z,16.53
2022-08-30T03:23:05.407Z,16.54
2022-08-30T03:25:33.774Z,16.49
2022-08-30T03:28:00.551Z,16.44
2022-08-30T03:30:30.478Z,16.45
2022-08-30T03:33:00.732Z,16.43
2022-08-30T03:35:27.406Z,16.45
2022-08-30T03:38:02.926Z,16.38
2022-08-30T03:40:31.707Z,16.38
2022-08-30T03:42:58.126Z,16.35
2022-08-30T03:45:24.587Z,16.31
2022-08-30T03:47:51.698Z,16.28
2022-08-30T03:50:18.086Z,16.25
2022-08-30T03:52:45.704Z,16.23
2022-08-30T03:55:12.500Z,16.18
2022-08-30T03:57:40.506Z,16.14
2022-08-30T04:00:11.193Z,16.09
2022-08-30T04:02:40.851Z,16.07
2022-08-30T04:05:08.997Z,16.02
2022-08-30T04:07:35.814Z,16.00
2022-08-30T04:10:02.666Z,15.95
2022-08-30T04:12:29.090Z,15.92
2022-08-30T04:14:55.562Z,15.92
2022-08-30T04:17:22.098Z,15.90
2022-08-30T04:19:48.493Z,15.89
2022-08-30T04:22:14.957Z,15.82
2022-08-30T04:24:41.630Z,15.80
2022-08-30T04:27:11.312Z,15.81
2022-08-30T04:29:39.876Z,15.80
2022-08-30T04:32:06.450Z,15.71
2022-08-30T04:34:37.563Z,15.71
2022-08-30T04:37:03.999Z,15.68
2022-08-30T04:39:31.043Z,15.66
2022-08-30T04:41:58.328Z,15.63
2022-08-30T04:44:27.340Z,15.59
2022-08-30T04:46:54.130Z,15.54
2022-08-30T04:49:20.647Z,15.58
2022-08-30T04:51:47.247Z,15.56
2022-08-30T04:54:13.889Z,15.56
2022-08-30T04:56:43.689Z,15.59
2022-08-30T04:59:14.292Z,15.58
2022-08-30T05:01:45.449Z,15.61
2022-08-30T05:04:15.928Z,15.61
2022-08-30T05:06:43.071Z,15.61
2022-08-30T05:09:09.629Z,15.61
2022-08-30T05:11:36.888Z,15.62
2022-08-30T05:14:03.358Z,15.69
2022-08-30T05:16:29.862Z,15.68
2022-08-30T05:18:56.384Z,15.71
2022-08-30T05:21:27.107Z,15.75
2022-08-30T05:24:00.851Z,15.84
2022-08-30T05:26:33.181Z,15.85
2022-08-30T05:29:00.367Z,15.91
2022-08-30T05:31:30.208Z,16.00
2022-08-30T05:33:57.805Z,16.10
2022-08-30T05:36:27.369Z,16.16
2022-08-30T05:38:54.936Z,16.27
2022-08-30T05:41:23.229Z,16.34
2022-08-30T05:44:01.356Z,16.43
2022-08-30T05:49:06.395Z,16.66
2022-08-30T05:51:34.890Z,16.76
2022-08-30T05:54:01.618Z,16.89
2022-08-30T05:56:32.611Z,17.02
2022-08-30T05:59:05.018Z,17.11
2022-08-30T06:01:35.219Z,17.25
2022-08-30T06:04:06.120Z,17.30
2022-08-30T06:06:37.334Z,17.42
2022-08-30T06:09:05.990Z,17.49
2022-08-30T06:11:33.523Z,17.69
2022-08-30T06:14:00.485Z,17.84
2022-08-30T06:16:28.244Z,17.91
2022-08-30T06:19:00.132Z,18.11
2022-08-30T06:21:28.673Z,18.19
2022-08-30T06:23:56.391Z,18.38
2022-08-30T06:26:23.393Z,18.50
2022-08-30T06:28:50.119Z,18.72
2022-08-30T06:31:18.763Z,18.85
2022-08-30T06:33:50.979Z,19.09
2022-08-30T06:36:22.738Z,19.30
2022-08-30T06:38:54.783Z,19.45
2022-08-30T06:41:29.133Z,19.50
2022-08-30T06:43:57.094Z,19.64
2022-08-30T06:46:30.131Z,19.64
2022-08-30T06:48:57.211Z,19.68
2022-08-30T06:51:36.682Z,19.86
2022-08-30T06:54:05.019Z,20.10
2022-08-30T06:56:31.862Z,20.32
2022-08-30T06:58:59.116Z,20.30
2022-08-30T07:01:28.323Z,20.32
2022-08-30T07:03:55.597Z,20.46
2022-08-30T07:06:23.764Z,20.62
2022-08-30T07:08:50.985Z,20.80
2022-08-30T07:11:41.654Z,20.85
2022-08-30T07:14:08.715Z,21.17
2022-08-30T07:16:35.553Z,21.39
2022-08-30T07:19:03.385Z,21.70
2022-08-30T07:21:34.315Z,21.42
2022-08-30T07:24:01.237Z,21.66
2022-08-30T07:26:32.816Z,21.67
2022-08-30T07:28:59.946Z,21.55
2022-08-30T07:31:26.601Z,21.98
2022-08-30T07:33:53.201Z,21.78
2022-08-30T07:36:21.806Z,21.76
2022-08-30T07:38:54.706Z,21.79
2022-08-30T07:41:28.924Z,21.61
2022-08-30T07:43:58.242Z,21.61
2022-08-30T07:46:28.249Z,21.81
2022-08-30T07:48:55.199Z,21.96
2022-08-30T07:51:27.578Z,21.91
2022-08-30T07:53:55.227Z,22.01
2022-08-30T07:56:22.274Z,22.00
2022-08-30T07:58:49.784Z,21.84
2022-08-30T08:01:20.136Z,21.84
2022-08-30T08:03:47.844Z,22.12
2022-08-30T08:06:19.246Z,22.32
2022-08-30T08:08:45.778Z,22.46
2022-08-30T08:11:21.789Z,22.39
2022-08-30T08:13:53.779Z,22.45
2022-08-30T08:16:23.084Z,22.67
2022-08-30T08:18:49.605Z,22.98
2022-08-30T08:21:16.129Z,23.27
2022-08-30T08:23:42.570Z,23.40
2022-08-30T08:26:09.100Z,23.56
2022-08-30T08:28:35.604Z,23.77
2022-08-30T08:31:14.773Z,23.84
2022-08-30T08:33:41.314Z,24.02
2022-08-30T08:36:09.983Z,24.10
2022-08-30T08:38:38.960Z,24.31
2022-08-30T08:41:10.458Z,24.29
2022-08-30T08:43:37.441Z,24.17
2022-08-30T08:46:06.458Z,24.30
2022-08-30T08:48:58.422Z,24.59
2022-08-30T08:51:47.008Z,24.83
2022-08-30T08:54:16.122Z,24.71
2022-08-30T08:56:43.131Z,24.47
2022-08-30T08:59:11.676Z,24.49
2022-08-30T09:01:41.289Z,24.57
2022-08-30T09:04:20.635Z,24.66
2022-08-30T09:06:59.412Z,24.82
2022-08-30T09:09:38.615Z,24.79
2022-08-30T09:12:13.182Z,24.91
2022-08-30T09:14:46.014Z,25.02
2022-08-30T09:17:15.662Z,25.00
2022-08-30T09:19:54.193Z,25.04
2022-08-30T09:22:37.799Z,25.04
2022-08-30T09:25:12.980Z,25.06
2022-08-30T09:27:40.789Z,25.11
2022-08-30T09:30:15.478Z,25.75
2022-08-30T09:32:52.363Z,25.98
2022-08-30T09:35:24.176Z,26.09
2022-08-30T09:37:56.536Z,25.95
2022-08-30T09:40:44.192Z,26.17
2022-08-30T09:43:16.458Z,26.19
2022-08-30T09:45:49.784Z,26.39
2022-08-30T09:48:28.931Z,26.21
2022-08-30T09:51:29.110Z,26.59
2022-08-30T09:54:17.109Z,26.54
2022-08-30T09:56:50.794Z,26.86
2022-08-30T09:59:48.470Z,27.08
2022-08-30T10:02:45.939Z,27.27
2022-08-30T10:05:49.593Z,27.14
2022-08-30T10:08:27.640Z,26.67
2022-08-30T10:11:04.501Z,26.67
2022-08-30T10:13:49.968Z,26.96
2022-08-30T10:16:58.943Z,26.94
2022-08-30T10:19:51.442Z,26.73
2022-08-30T10:22:41.978Z,26.92
2022-08-30T10:25:18.538Z,26.99
2022-08-30T10:28:10.198Z,26.92
2022-08-30T10:30:40.831Z,27.28
2022-08-30T10:33:33.209Z,27.57
2022-08-30T10:36:05.336Z,27.78
2022-08-30T10:38:39.596Z,27.66
2022-08-30T10:41:28.567Z,28.06
2022-08-30T10:44:03.078Z,27.78
2022-08-30T10:46:36.459Z,27.67
2022-08-30T10:49:12.244Z,27.97
2022-08-30T10:51:54.977Z,28.00
2022-08-30T10:54:34.584Z,28.04
2022-08-30T10:57:01.072Z,28.72
2022-08-30T10:59:30.537Z,28.36
2022-08-30T11:02:16.347Z,28.31
2022-08-30T11:05:05.191Z,28.44
2022-08-30T11:07:46.261Z,28.20
2022-08-30T11:10:24.521Z,28.19
2022-08-30T11:13:11.334Z,28.24
2022-08-30T11:15:57.286Z,28.23
2022-08-30T11:18:27.283Z,28.30
2022-08-30T11:21:15.240Z,28.87
2022-08-30T11:24:04.774Z,28.70
2022-08-30T11:26:46.717Z,28.81
2022-08-30T11:29:32.686Z,28.44
2022-08-30T11:32:19.788Z,28.83
2022-08-30T11:34:46.490Z,28.89
2022-08-30T11:37:37.374Z,28.90
2022-08-30T11:40:26.285Z,29.25
2022-08-30T11:43:00.030Z,29.13
2022-08-30T11:45:28.394Z,29.16
2022-08-30T11:48:39.121Z,29.31
2022-08-30T11:51:31.237Z,29.28
2022-08-30T11:54:03.479Z,29.20
2022-08-30T11:56:58.993Z,29.75
2022-08-30T12:00:02.192Z,30.14
2022-08-30T12:02:59.292Z,30.37
2022-08-30T12:05:38.659Z,30.15
2022-08-30T12:08:09.969Z,30.51
2022-08-30T12:10:40.942Z,30.69
2022-08-30T12:13:10.674Z,30.45
2022-08-30T12:16:01.678Z,30.21
2022-08-30T12:19:00.170Z,30.76
2022-08-30T12:21:43.766Z,31.05
2022-08-30T12:24:25.097Z,30.69
2022-08-30T12:26:53.102Z,30.84
2022-08-30T12:29:19.542Z,30.50
2022-08-30T12:31:58.249Z,30.24
2022-08-30T12:34:44.784Z,30.23
2022-08-30T12:37:55.502Z,30.33
2022-08-30T12:40:25.362Z,30.13
2022-08-30T12:43:04.775Z,30.46
2022-08-30T12:45:42.843Z,29.85
2022-08-30T12:48:12.965Z,29.95
2022-08-30T12:50:51.907Z,30.08
2022-08-30T12:53:29.026Z,30.35
2022-08-30T12:56:02.111Z,30.82
2022-08-30T12:58:47.267Z,30.67
2022-08-30T13:01:19.880Z,30.45
2022-08-30T13:04:23.731Z,30.56
2022-08-30T13:06:59.149Z,30.82
2022-08-30T13:09:34.623Z,30.83
2022-08-30T13:12:03.909Z,30.44
2022-08-30T13:14:35.284Z,30.04
2022-08-30T13:17:22.965Z,29.94
2022-08-30T13:20:16.132Z,29.73
2022-08-30T13:23:08.010Z,29.70
2022-08-30T13:25:38.325Z,29.92
2022-08-30T13:28:06.929Z,29.83
2022-08-30T13:30:36.302Z,29.84
2022-08-30T13:33:03.007Z,29.93
2022-08-30T13:35:32.665Z,29.98
2022-08-30T13:38:01.918Z,29.86
2022-08-30T13:40:28.643Z,29.82
2022-08-30T13:42:56.637Z,29.76
2022-08-30T13:45:41.608Z,29.54
2022-08-30T13:48:10.842Z,29.55
2022-08-30T13:50:37.426Z,29.76
2022-08-30T13:53:08.981Z,29.68
2022-08-30T13:55:43.994Z,29.65
2022-08-30T13:58:13.775Z,29.57
2022-08-30T14:00:43.772Z,29.27
2022-08-30T14:03:10.249Z,29.19
2022-08-30T14:08:45.586Z,29.04
2022-08-30T14:11:19.323Z,29.08
2022-08-30T14:16:35.204Z,29.35
2022-08-30T14:19:02.337Z,29.44
2022-08-30T14:21:29.129Z,29.37
2022-08-30T14:23:57.960Z,29.45
2022-08-30T14:26:35.680Z,29.46
2022-08-30T14:29:05.336Z,29.49
2022-08-30T14:31:36.275Z,29.43
2022-08-30T14:34:05.261Z,29.41
2022-08-30T14:36:34.057Z,29.24
2022-08-30T14:39:01.034Z,29.08
2022-08-30T14:41:27.560Z,29.12
2022-08-30T14:43:54.047Z,29.37
2022-08-30T14:46:22.058Z,29.31
2022-08-30T14:48:52.082Z,29.25
2022-08-30T14:51:20.714Z,29.21
2022-08-30T14:53:48.124Z,29.20
2022-08-30T14:56:17.296Z,29.18
2022-08-30T14:58:48.803Z,29.05
2022-08-30T15:01:15.399Z,29.04
2022-08-30T15:03:42.189Z,28.98
2022-08-30T15:06:13.838Z,28.98
2022-08-30T15:08:42.739Z,29.05
2022-08-30T15:11:19.628Z,29.04
2022-08-30T15:13:46.961Z,28.93
2022-08-30T15:16:17.535Z,28.91
2022-08-30T15:18:44.707Z,28.89
2022-08-30T15:21:11.528Z,28.89
2022-08-30T15:23:39.303Z,29.02
2022-08-30T15:26:06.949Z,29.14
2022-08-30T15:28:35.006Z,29.15
2022-08-30T15:31:06.300Z,29.19
2022-08-30T15:33:37.554Z,29.20
2022-08-30T15:36:05.427Z,29.13
2022-08-30T15:38:32.222Z,29.11
2022-08-30T15:41:05.572Z,29.08
2022-08-30T15:43:32.071Z,29.04
2022-08-30T15:46:22.737Z,29.01
2022-08-30T15:48:55.137Z,29.01
2022-08-30T15:51:25.399Z,28.99
2022-08-30T15:53:55.507Z,28.98
2022-08-30T15:56:22.538Z,29.03
2022-08-30T15:58:48.972Z,29.07
2022-08-30T16:01:30.510Z,29.06
2022-08-30T16:03:57.572Z,29.06
2022-08-30T16:06:31.254Z,29.09
2022-08-30T16:08:58.741Z,29.01
2022-08-30T16:11:27.701Z,28.94
2022-08-30T16:13:56.906Z,28.96
2022-08-30T16:16:23.967Z,28.90
2022-08-30T16:18:55.112Z,28.79
2022-08-30T16:21:25.232Z,28.74
2022-08-30T16:23:55.289Z,28.71
2022-08-30T16:26:22.503Z,28.57
2022-08-30T16:28:49.917Z,28.55
2022-08-30T16:31:17.793Z,28.54
2022-08-30T16:33:52.467Z,28.49
2022-08-30T16:36:19.708Z,28.48
2022-08-30T16:38:47.969Z,28.43
2022-08-30T16:41:21.480Z,28.41
2022-08-30T16:43:49.395Z,28.36
2022-08-30T16:46:18.081Z,28.36
2022-08-30T16:48:46.300Z,28.38
2022-08-30T16:51:24.866Z,28.38
2022-08-30T16:53:58.122Z,28.39
2022-08-30T16:56:26.719Z,28.34
2022-08-30T16:59:02.053Z,28.36
2022-08-30T17:01:34.833Z,28.33
2022-08-30T17:04:02.604Z,28.27
2022-08-30T17:06:31.254Z,28.24
2022-08-30T17:08:58.565Z,28.18
2022-08-30T17:11:25.469Z,28.17
2022-08-30T17:13:52.678Z,28.13
2022-08-30T17:16:22.574Z,28.07
2022-08-30T17:18:54.985Z,28.00
2022-08-30T17:21:21.782Z,27.99
2022-08-30T17:23:49.549Z,27.94
2022-08-30T17:26:19.309Z,27.89
2022-08-30T17:28:45.930Z,27.85
2022-08-30T17:31:12.839Z,27.81
2022-08-30T17:33:43.033Z,27.77
2022-08-30T17:36:12.165Z,27.74
2022-08-30T17:38:38.566Z,27.63
2022-08-30T17:41:11.416Z,27.59
2022-08-30T17:43:42.706Z,27.52
2022-08-30T17:46:18.332Z,27.49
2022-08-30T17:48:45.801Z,27.40
2022-08-30T17:51:12.992Z,27.33
2022-08-30T17:53:39.786Z,27.24
2022-08-30T17:56:06.324Z,27.16
2022-08-30T17:58:34.424Z,27.09
2022-08-30T18:01:20.096Z,26.96
2022-08-30T18:03:48.648Z,26.82
2022-08-30T18:06:15.529Z,26.69
2022-08-30T18:08:43.052Z,26.65
2022-08-30T18:11:09.561Z,26.58
2022-08-30T18:13:43.366Z,26.46
2022-08-30T18:16:10.404Z,26.49
2022-08-30T18:18:40.120Z,26.38
2022-08-30T18:21:13.641Z,26.18
2022-08-30T18:23:40.381Z,26.12
2022-08-30T18:26:07.515Z,25.91
2022-08-30T18:28:34.626Z,25.84
2022-08-30T18:31:01.087Z,25.72
2022-08-30T18:33:28.499Z,25.66
2022-08-30T18:35:55.975Z,25.68
2022-08-30T18:38:23.948Z,25.66
2022-08-30T18:40:51.773Z,25.67
2022-08-30T18:43:18.759Z,25.63
2022-08-30T18:45:51.582Z,25.57
2022-08-30T18:48:19.395Z,25.58
2022-08-30T18:50:46.709Z,25.50
2022-08-30T18:53:14.804Z,25.30
2022-08-30T18:55:55.006Z,25.19
2022-08-30T18:58:21.779Z,25.12
2022-08-30T19:00:51.882Z,25.08
2022-08-30T19:03:19.785Z,25.00
2022-08-30T19:05:49.026Z,24.98
2022-08-30T19:08:16.036Z,24.96
2022-08-30T19:10:44.364Z,24.96
2022-08-30T19:13:11.016Z,24.93
2022-08-30T19:15:39.922Z,24.99
2022-08-30T19:18:16.778Z,24.97
2022-08-30T19:20:45.194Z,24.95
2022-08-30T19:23:12.114Z,24.99
2022-08-30T19:25:42.555Z,25.07
2022-08-30T19:28:10.464Z,25.05
2022-08-30T19:30:37.699Z,25.03
2022-08-30T19:33:04.210Z,25.00
2022-08-30T19:35:35.848Z,24.96
2022-08-30T19:38:02.304Z,24.94
2022-08-30T19:40:28.786Z,24.92
2022-08-30T19:43:00.098Z,24.77
2022-08-30T19:45:27.008Z,24.67
2022-08-30T19:47:53.477Z,24.57
2022-08-30T19:50:24.205Z,24.56
2022-08-30T19:52:59.290Z,24.53
2022-08-30T19:55:28.438Z,24.43
2022-08-30T19:58:14.023Z,24.35
2022-08-30T20:00:54.209Z,24.22
2022-08-30T20:03:34.457Z,24.00
2022-08-30T20:06:03.831Z,23.91
2022-08-30T20:08:31.357Z,23.78
2022-08-30T20:10:57.872Z,23.62
2022-08-30T20:13:24.320Z,23.57
2022-08-30T20:15:59.347Z,23.37
2022-08-30T20:18:26.217Z,23.33
2022-08-30T20:20:53.458Z,23.27
2022-08-30T20:23:22.967Z,23.18
2022-08-30T20:25:56.523Z,23.22
2022-08-30T20:28:25.064Z,23.20
2022-08-30T20:30:52.268Z,23.33
2022-08-30T20:33:20.065Z,23.28
2022-08-30T20:35:49.348Z,23.33
2022-08-30T20:38:23.700Z,23.35
2022-08-30T20:40:56.550Z,23.58
2022-08-30T20:43:26.778Z,23.50
2022-08-30T20:45:55.282Z,23.54
2022-08-30T20:48:23.731Z,23.38
2022-08-30T20:50:52.512Z,23.35
2022-08-30T20:53:18.964Z,23.37
2022-08-30T20:55:47.261Z,23.41
2022-08-30T20:58:14.390Z,23.44
2022-08-30T21:00:41.199Z,23.34
2022-08-30T21:03:27.403Z,23.26
2022-08-30T21:05:59.561Z,23.22
2022-08-30T21:08:26.270Z,23.37
2022-08-30T21:10:54.490Z,23.33
2022-08-30T21:13:21.227Z,23.19
2022-08-30T21:15:52.083Z,23.21
2022-08-30T21:18:18.617Z,23.17
2022-08-30T21:20:45.165Z,23.05
2022-08-30T21:23:11.837Z,22.90
2022-08-30T21:25:40.478Z,22.92
2022-08-30T21:28:07.746Z,22.87
2022-08-30T21:30:39.917Z,22.78
2022-08-30T21:33:10.156Z,22.80
2022-08-30T21:35:55.813Z,22.73
2022-08-30T21:38:27.459Z,22.91
2022-08-30T21:40:56.443Z,23.02
2022-08-30T21:43:22.852Z,23.16
2022-08-30T21:45:51.235Z,23.57
2022-08-30T21:48:17.975Z,23.63
2022-08-30T21:50:45.664Z,23.80
2022-08-30T21:53:15.504Z,23.96
2022-08-30T21:55:43.720Z,24.04
2022-08-30T21:58:12.926Z,24.12
2022-08-30T22:00:39.420Z,24.15
2022-08-30T22:03:05.873Z,24.40
2022-08-30T22:05:32.271Z,24.41
2022-08-30T22:07:59.496Z,24.51
2022-08-30T22:10:29.005Z,24.50
2022-08-30T22:12:58.279Z,24.46
2022-08-30T22:15:29.654Z,24.48
2022-08-30T22:17:56.080Z,24.42
2022-08-30T22:20:22.465Z,24.48
2022-08-30T22:22:52.539Z,24.51
2022-08-30T22:25:23.961Z,24.45
2022-08-30T22:27:50.547Z,24.43
2022-08-30T22:30:19.472Z,24.37
2022-08-30T22:32:45.874Z,24.37
2022-08-30T22:35:15.677Z,24.45
2022-08-30T22:37:42.694Z,24.44
2022-08-30T22:40:14.268Z,24.44
2022-08-30T22:42:40.734Z,24.38
2022-08-30T22:45:14.722Z,24.30
2022-08-30T22:47:41.108Z,24.27
2022-08-30T22:50:08.021Z,24.31
2022-08-30T22:52:34.527Z,24.28
2022-08-30T22:55:00.951Z,24.27
2022-08-30T22:57:27.548Z,24.21
2022-08-30T22:59:54.719Z,24.24
2022-08-30T23:02:21.172Z,24.25
2022-08-30T23:04:47.752Z,24.26
2022-08-30T23:07:14.153Z,24.17
2022-08-30T23:09:40.569Z,24.18
2022-08-30T23:12:07.163Z,24.19
2022-08-30T23:14:33.652Z,24.16
2022-08-30T23:17:00.643Z,24.14
2022-08-30T23:19:27.250Z,24.07
2022-08-30T23:21:53.681Z,24.00
2022-08-30T23:24:38.709Z,24.01
2022-08-30T23:27:23.970Z,23.98
2022-08-30T23:30:09.071Z,23.92
2022-08-30T23:32:53.930Z,23.95
2022-08-30T23:35:39.015Z,23.95
2022-08-30T23:38:26.610Z,23.85
2022-08-30T23:41:11.510Z,23.78
2022-08-30T23:43:59.425Z,23.76
2022-08-30T23:46:44.450Z,23.75
2022-08-30T23:49:34.636Z,23.70
2022-08-30T23:52:23.059Z,23.74
2022-08-30T23:55:08.191Z,23.69
2022-08-30T23:57:53.623Z,23.67
